createdAt,value
2023-01-26T00:00:46.839Z,30.60
2023-01-26T00:02:48.932Z,27.63
2023-01-26T00:04:51.263Z,31.43
2023-01-26T00:06:53.386Z,30.13
2023-01-26T00:08:59.590Z,31.50
2023-01-26T00:11:05.506Z,29.23
2023-01-26T00:13:10.198Z,30.47
2023-01-26T00:15:14.981Z,29.60
2023-01-26T00:17:26.404Z,27.77
2023-01-26T00:19:28.493Z,28.00
2023-01-26T00:21:32.953Z,28.53
2023-01-26T00:23:37.134Z,28.77
2023-01-26T00:25:40.604Z,23.10
2023-01-26T00:27:42.619Z,23.83
2023-01-26T00:29:45.979Z,24.50
2023-01-26T00:31:48.152Z,24.03
2023-01-26T00:33:50.997Z,24.53
2023-01-26T00:35:56.006Z,28.17
2023-01-26T00:37:58.239Z,25.03
2023-01-26T00:40:00.288Z,28.17
2023-01-26T00:42:11.634Z,27.40
2023-01-26T00:44:13.763Z,25.90
2023-01-26T00:46:15.918Z,24.80
2023-01-26T00:48:22.465Z,25.77
2023-01-26T00:50:25.680Z,27.80
2023-01-26T00:52:27.711Z,29.70
2023-01-26T00:54:30.594Z,28.63
2023-01-26T00:56:32.718Z,22.83
2023-01-26T00:58:34.820Z,27.67
2023-01-26T01:00:38.986Z,22.20
2023-01-26T01:02:41.312Z,25.60
2023-01-26T01:04:43.363Z,25.77
2023-01-26T01:06:48.208Z,24.50
2023-01-26T01:08:50.446Z,26.80
2023-01-26T01:11:03.486Z,24.23
2023-01-26T01:13:05.474Z,23.07
2023-01-26T01:15:08.889Z,25.10
2023-01-26T01:17:11.114Z,25.23
2023-01-26T01:19:16.598Z,23.30
2023-01-26T01:21:21.489Z,26.73
2023-01-26T01:23:23.632Z,26.07
2023-01-26T01:25:25.952Z,26.63
2023-01-26T01:27:28.281Z,25.10
2023-01-26T01:29:30.453Z,24.30
2023-01-26T01:31:33.508Z,23.37
2023-01-26T01:33:35.635Z,25.03
2023-01-26T01:35:38.201Z,22.03
2023-01-26T01:37:40.200Z,23.27
2023-01-26T01:39:42.772Z,22.33
2023-01-26T01:41:45.037Z,21.90
2023-01-26T01:43:47.505Z,19.33
2023-01-26T01:45:51.399Z,21.07
2023-01-26T01:47:57.752Z,19.27
2023-01-26T01:50:02.575Z,22.83
2023-01-26T01:52:11.266Z,19.20
2023-01-26T01:54:17.669Z,21.30
2023-01-26T01:56:23.904Z,22.13
2023-01-26T01:58:30.515Z,18.27
2023-01-26T02:00:33.203Z,20.10
2023-01-26T02:02:38.030Z,20.10
2023-01-26T02:04:40.233Z,19.27
2023-01-26T02:06:52.074Z,21.33
2023-01-26T02:08:56.298Z,20.73
2023-01-26T02:11:02.565Z,19.53
2023-01-26T02:13:05.686Z,19.57
2023-01-26T02:15:08.915Z,21.67
2023-01-26T02:17:11.122Z,23.03
2023-01-26T02:19:22.484Z,16.07
2023-01-26T02:21:24.799Z,19.33
2023-01-26T02:23:48.634Z,16.93
2023-01-26T02:25:52.976Z,18.80
2023-01-26T02:27:55.117Z,18.43
2023-01-26T02:30:00.823Z,19.17
2023-01-26T02:32:03.265Z,23.70
2023-01-26T02:34:05.513Z,20.40
2023-01-26T02:36:10.829Z,24.00
2023-01-26T02:38:15.024Z,21.00
2023-01-26T02:40:25.218Z,20.33
2023-01-26T02:42:41.240Z,20.37
2023-01-26T02:44:44.510Z,20.93
2023-01-26T02:46:47.416Z,22.40
2023-01-26T02:49:09.662Z,25.83
2023-01-26T02:51:11.661Z,20.03
2023-01-26T02:53:13.845Z,19.30
2023-01-26T02:55:30.818Z,19.87
2023-01-26T02:57:35.343Z,18.57
2023-01-26T02:59:37.899Z,18.37
2023-01-26T03:01:40.345Z,20.30
2023-01-26T03:03:42.408Z,17.90
2023-01-26T03:05:44.916Z,18.23
2023-01-26T03:07:48.016Z,16.00
2023-01-26T03:09:50.384Z,16.37
2023-01-26T03:11:52.291Z,19.77
2023-01-26T03:13:54.527Z,21.67
2023-01-26T03:15:56.794Z,22.60
2023-01-26T03:18:28.200Z,17.27
2023-01-26T03:20:49.064Z,20.30
2023-01-26T03:23:14.441Z,20.83
2023-01-26T03:25:36.955Z,18.80
2023-01-26T03:27:49.359Z,17.43
2023-01-26T03:29:51.729Z,17.57
2023-01-26T03:31:54.512Z,16.03
2023-01-26T03:33:56.581Z,18.93
2023-01-26T03:35:58.694Z,19.80
2023-01-26T03:38:04.333Z,18.73
2023-01-26T03:40:41.590Z,17.93
2023-01-26T03:43:02.541Z,20.07
2023-01-26T03:45:24.508Z,21.30
2023-01-26T03:47:45.437Z,19.47
2023-01-26T03:50:05.912Z,18.67
2023-01-26T03:52:27.019Z,17.87
2023-01-26T03:54:47.915Z,18.17
2023-01-26T03:56:50.706Z,17.60
2023-01-26T03:58:58.272Z,16.03
2023-01-26T04:01:03.719Z,18.13
2023-01-26T04:03:24.424Z,17.57
2023-01-26T04:05:45.451Z,17.47
2023-01-26T04:08:06.668Z,13.93
2023-01-26T04:10:10.077Z,15.67
2023-01-26T04:12:14.305Z,16.50
2023-01-26T04:15:03.879Z,15.17
2023-01-26T04:17:26.428Z,18.57
2023-01-26T04:19:48.669Z,18.73
2023-01-26T04:21:50.929Z,17.77
2023-01-26T04:23:56.669Z,15.70
2023-01-26T04:25:59.593Z,21.57
2023-01-26T04:28:02.099Z,15.17
2023-01-26T04:30:06.226Z,13.97
2023-01-26T04:32:08.782Z,15.13
2023-01-26T04:34:13.400Z,13.87
2023-01-26T04:36:16.157Z,14.97
2023-01-26T04:38:22.146Z,13.77
2023-01-26T04:40:24.671Z,13.73
2023-01-26T04:42:26.767Z,11.83
2023-01-26T04:44:30.605Z,14.60
2023-01-26T04:46:33.559Z,13.47
2023-01-26T04:48:37.721Z,13.77
2023-01-26T04:50:42.425Z,14.40
2023-01-26T04:52:44.635Z,15.20
2023-01-26T04:54:46.649Z,13.70
2023-01-26T04:56:49.529Z,14.30
2023-01-26T04:58:52.928Z,18.87
2023-01-26T05:00:57.699Z,19.83
2023-01-26T05:03:02.923Z,21.23
2023-01-26T05:05:07.916Z,18.33
2023-01-26T05:07:10.183Z,17.23
2023-01-26T05:09:13.640Z,16.73
2023-01-26T05:11:18.550Z,15.93
2023-01-26T05:13:36.311Z,14.60
2023-01-26T05:15:49.582Z,15.90
2023-01-26T05:18:14.497Z,13.90
2023-01-26T05:20:28.525Z,16.43
2023-01-26T05:22:51.378Z,16.87
2023-01-26T05:25:13.389Z,14.57
2023-01-26T05:27:23.009Z,16.60
2023-01-26T05:29:32.588Z,16.40
2023-01-26T05:31:34.934Z,18.27
2023-01-26T05:33:37.390Z,16.07
2023-01-26T05:35:40.025Z,12.93
2023-01-26T05:37:45.934Z,14.30
2023-01-26T05:39:49.304Z,11.50
2023-01-26T05:41:51.825Z,17.67
2023-01-26T05:43:53.875Z,14.00
2023-01-26T05:46:10.853Z,13.53
2023-01-26T05:48:17.724Z,18.43
2023-01-26T05:50:21.156Z,15.33
2023-01-26T05:52:46.702Z,21.60
2023-01-26T05:54:51.311Z,18.67
2023-01-26T05:56:54.144Z,18.33
2023-01-26T05:58:57.228Z,14.60
2023-01-26T06:01:04.595Z,14.93
2023-01-26T06:03:13.892Z,22.70
2023-01-26T06:05:16.132Z,27.67
2023-01-26T06:07:20.054Z,30.57
2023-01-26T06:09:30.714Z,27.47
2023-01-26T06:12:03.915Z,21.53
2023-01-26T06:14:29.539Z,18.27
2023-01-26T06:16:31.635Z,16.60
2023-01-26T06:18:36.857Z,17.17
2023-01-26T06:20:39.396Z,15.63
2023-01-26T06:22:41.739Z,15.23
2023-01-26T06:24:43.890Z,15.40
2023-01-26T06:26:48.959Z,12.20
2023-01-26T06:28:54.059Z,13.87
2023-01-26T06:31:01.409Z,14.90
2023-01-26T06:33:04.419Z,14.90
2023-01-26T06:35:10.059Z,16.60
2023-01-26T06:37:14.144Z,13.70
2023-01-26T06:39:17.341Z,16.07
2023-01-26T06:41:19.963Z,14.87
2023-01-26T06:43:25.279Z,21.10
2023-01-26T06:45:27.833Z,105.20
2023-01-26T06:47:31.092Z,107.60
2023-01-26T06:49:34.892Z,64.83
2023-01-26T06:51:43.458Z,37.03
2023-01-26T06:53:56.704Z,22.83
2023-01-26T06:56:07.355Z,22.13
2023-01-26T06:58:18.301Z,17.67
2023-01-26T07:00:39.869Z,15.83
2023-01-26T07:02:59.840Z,14.60
2023-01-26T07:05:02.058Z,13.00
2023-01-26T07:07:08.857Z,14.80
2023-01-26T07:09:11.484Z,14.10
2023-01-26T07:11:14.005Z,15.93
2023-01-26T07:13:16.551Z,15.47
2023-01-26T07:15:18.499Z,13.93
2023-01-26T07:17:20.970Z,13.73
2023-01-26T07:19:22.934Z,17.43
2023-01-26T07:21:25.232Z,15.27
2023-01-26T07:23:27.567Z,16.27
2023-01-26T07:25:30.385Z,16.57
2023-01-26T07:27:32.447Z,15.77
2023-01-26T07:29:34.824Z,20.20
2023-01-26T07:31:38.315Z,13.40
2023-01-26T07:33:40.799Z,14.73
2023-01-26T07:35:45.706Z,14.23
2023-01-26T07:37:47.651Z,11.53
2023-01-26T07:39:50.180Z,12.57
2023-01-26T07:41:52.360Z,12.77
2023-01-26T07:44:12.942Z,12.87
2023-01-26T07:46:15.454Z,14.07
2023-01-26T07:48:22.621Z,11.20
2023-01-26T07:50:28.218Z,13.77
2023-01-26T07:52:30.849Z,15.17
2023-01-26T07:54:36.223Z,11.97
2023-01-26T07:56:38.618Z,13.43
2023-01-26T07:58:41.374Z,11.57
2023-01-26T08:00:47.448Z,14.80
2023-01-26T08:02:55.825Z,12.77
2023-01-26T08:04:58.146Z,12.90
2023-01-26T08:07:00.955Z,12.83
2023-01-26T08:09:03.467Z,10.80
2023-01-26T08:11:06.190Z,13.03
2023-01-26T08:13:10.832Z,29.63
2023-01-26T08:15:13.109Z,39.10
2023-01-26T08:17:17.658Z,24.70
2023-01-26T08:19:20.566Z,19.03
2023-01-26T08:21:22.688Z,16.00
2023-01-26T08:23:28.013Z,15.57
2023-01-26T08:25:30.450Z,13.60
2023-01-26T08:27:32.660Z,14.70
2023-01-26T08:29:34.732Z,13.70
2023-01-26T08:31:37.806Z,14.87
2023-01-26T08:33:42.661Z,14.67
2023-01-26T08:35:45.163Z,12.10
2023-01-26T08:37:47.043Z,15.23
2023-01-26T08:39:49.314Z,12.23
2023-01-26T08:41:51.486Z,14.93
2023-01-26T08:43:53.807Z,14.07
2023-01-26T08:45:56.200Z,70.90
2023-01-26T08:47:58.531Z,46.77
2023-01-26T08:50:01.052Z,32.70
2023-01-26T08:52:03.769Z,19.30
2023-01-26T08:54:08.425Z,17.60
2023-01-26T08:56:13.167Z,16.10
2023-01-26T08:58:15.400Z,15.50
2023-01-26T09:00:17.886Z,16.27
2023-01-26T09:02:20.650Z,15.97
2023-01-26T09:04:23.100Z,15.00
2023-01-26T09:06:25.553Z,15.17
2023-01-26T09:08:28.766Z,19.20
2023-01-26T09:10:32.159Z,21.97
2023-01-26T09:12:36.664Z,21.10
2023-01-26T09:14:38.714Z,24.07
2023-01-26T09:16:41.317Z,27.83
2023-01-26T09:18:43.561Z,28.10
2023-01-26T09:20:46.036Z,31.93
2023-01-26T09:22:48.339Z,35.17
2023-01-26T09:24:50.893Z,31.30
2023-01-26T09:26:53.062Z,23.33
2023-01-26T09:28:55.469Z,20.43
2023-01-26T09:31:00.818Z,17.23
2023-01-26T09:33:05.114Z,18.43
2023-01-26T09:35:14.268Z,17.33
2023-01-26T09:37:17.477Z,18.20
2023-01-26T09:39:19.651Z,27.83
2023-01-26T09:42:15.602Z,31.03
2023-01-26T09:44:24.918Z,23.17
2023-01-26T09:47:05.940Z,23.03
2023-01-26T09:49:17.536Z,20.80
2023-01-26T09:51:33.736Z,18.33
2023-01-26T09:53:53.126Z,18.97
2023-01-26T09:55:56.296Z,15.27
2023-01-26T09:58:10.710Z,16.13
2023-01-26T10:00:21.856Z,16.20
2023-01-26T10:02:41.215Z,16.50
2023-01-26T10:04:46.936Z,15.17
2023-01-26T10:06:49.781Z,15.07
2023-01-26T10:09:01.144Z,15.00
2023-01-26T10:11:11.986Z,13.63
2023-01-26T10:13:16.869Z,14.10
2023-01-26T10:15:21.800Z,11.87
2023-01-26T10:17:38.032Z,13.43
2023-01-26T10:19:45.630Z,15.00
2023-01-26T10:21:51.895Z,17.20
2023-01-26T10:23:55.669Z,15.53
2023-01-26T10:26:13.235Z,13.53
2023-01-26T10:28:18.781Z,15.00
2023-01-26T10:30:21.509Z,16.23
2023-01-26T10:32:24.325Z,15.80
2023-01-26T10:34:28.425Z,17.27
2023-01-26T10:36:32.144Z,16.50
2023-01-26T10:38:34.095Z,17.53
2023-01-26T10:40:45.636Z,15.33
2023-01-26T10:42:57.501Z,18.73
2023-01-26T10:45:02.487Z,20.20
2023-01-26T10:47:16.600Z,24.10
2023-01-26T10:49:20.535Z,31.10
2023-01-26T10:51:35.956Z,32.50
2023-01-26T10:53:38.399Z,31.87
2023-01-26T10:55:41.781Z,32.43
2023-01-26T10:57:44.566Z,26.90
2023-01-26T11:00:08.943Z,20.60
2023-01-26T11:02:23.388Z,13.97
2023-01-26T11:04:26.020Z,11.63
2023-01-26T11:06:30.066Z,11.73
2023-01-26T11:08:38.046Z,11.07
2023-01-26T11:10:54.292Z,11.87
2023-01-26T11:13:21.956Z,12.87
2023-01-26T11:15:27.867Z,16.60
2023-01-26T11:17:47.489Z,25.73
2023-01-26T11:20:16.638Z,45.67
2023-01-26T11:22:38.564Z,71.17
2023-01-26T11:24:55.341Z,53.53
2023-01-26T11:27:32.905Z,42.67
2023-01-26T11:29:50.444Z,31.40
2023-01-26T11:32:14.176Z,19.03
2023-01-26T11:34:29.689Z,16.43
2023-01-26T11:36:37.795Z,14.30
2023-01-26T11:38:41.931Z,12.67
2023-01-26T11:40:58.755Z,31.73
2023-01-26T11:43:15.903Z,35.70
2023-01-26T11:45:32.154Z,35.30
2023-01-26T11:48:28.915Z,21.47
2023-01-26T11:50:37.523Z,17.73
2023-01-26T11:53:20.621Z,16.83
2023-01-26T11:55:38.854Z,16.13
2023-01-26T11:58:02.390Z,16.73
2023-01-26T12:00:28.965Z,19.27
2023-01-26T12:02:38.876Z,14.80
2023-01-26T12:04:47.108Z,16.80
2023-01-26T12:06:58.578Z,16.23
2023-01-26T12:09:13.436Z,11.90
2023-01-26T12:11:31.887Z,13.80
2023-01-26T12:13:40.838Z,12.03
2023-01-26T12:15:52.687Z,14.53
2023-01-26T12:18:42.109Z,10.83
2023-01-26T12:21:00.715Z,14.97
2023-01-26T12:23:05.283Z,13.03
2023-01-26T12:25:38.429Z,26.73
2023-01-26T12:27:56.377Z,23.57
2023-01-26T12:30:34.410Z,18.63
2023-01-26T12:32:36.820Z,15.27
2023-01-26T12:34:39.542Z,16.27
2023-01-26T12:37:02.014Z,17.13
2023-01-26T12:39:11.361Z,15.37
2023-01-26T12:41:35.732Z,21.87
2023-01-26T12:43:52.935Z,16.90
2023-01-26T12:45:59.236Z,19.93
2023-01-26T12:48:16.193Z,20.97
2023-01-26T12:50:27.171Z,17.10
2023-01-26T12:52:33.552Z,16.23
2023-01-26T12:55:00.327Z,17.40
2023-01-26T12:57:07.081Z,16.00
2023-01-26T12:59:38.646Z,18.27
2023-01-26T13:01:43.485Z,24.63
2023-01-26T13:03:51.359Z,34.77
2023-01-26T13:06:02.793Z,29.23
2023-01-26T13:08:31.081Z,26.50
2023-01-26T13:10:49.828Z,26.57
2023-01-26T13:12:56.596Z,26.80
2023-01-26T13:15:00.917Z,28.77
2023-01-26T13:17:15.345Z,30.40
2023-01-26T13:20:00.051Z,32.90
2023-01-26T13:22:03.387Z,23.50
2023-01-26T13:24:17.711Z,29.43
2023-01-26T13:26:26.238Z,32.37
2023-01-26T13:28:29.520Z,28.00
2023-01-26T13:30:31.710Z,19.90
2023-01-26T13:32:36.697Z,21.03
2023-01-26T13:34:43.373Z,15.70
2023-01-26T13:36:48.005Z,22.70
2023-01-26T13:39:01.659Z,22.77
2023-01-26T13:41:10.636Z,21.83
2023-01-26T13:43:31.381Z,19.33
2023-01-26T13:46:11.803Z,21.63
2023-01-26T13:48:19.019Z,19.00
2023-01-26T13:50:38.475Z,20.33
2023-01-26T13:52:42.842Z,24.47
2023-01-26T13:54:46.075Z,23.93
2023-01-26T13:57:04.203Z,32.20
2023-01-26T13:59:14.833Z,29.50
2023-01-26T14:01:17.495Z,26.87
2023-01-26T14:03:23.797Z,26.10
2023-01-26T14:05:26.033Z,21.67
2023-01-26T14:07:33.031Z,22.37
2023-01-26T14:09:47.235Z,18.77
2023-01-26T14:11:57.983Z,20.37
2023-01-26T14:14:01.803Z,20.37
2023-01-26T14:16:08.667Z,22.40
2023-01-26T14:18:22.012Z,20.73
2023-01-26T14:20:36.288Z,27.07
2023-01-26T14:22:38.864Z,23.33
2023-01-26T14:24:42.802Z,22.77
2023-01-26T14:26:45.022Z,25.50
2023-01-26T14:28:47.554Z,25.80
2023-01-26T14:30:59.468Z,25.23
2023-01-26T14:33:11.608Z,25.87
2023-01-26T14:35:23.258Z,26.87
2023-01-26T14:37:26.767Z,25.57
2023-01-26T14:39:28.841Z,24.50
2023-01-26T14:41:33.888Z,27.40
2023-01-26T14:43:35.902Z,34.43
2023-01-26T14:45:41.363Z,33.67
2023-01-26T14:47:45.445Z,30.10
2023-01-26T14:49:53.366Z,32.00
2023-01-26T14:51:58.677Z,37.57
2023-01-26T14:54:07.249Z,39.33
2023-01-26T14:56:21.488Z,36.37
2023-01-26T14:58:29.400Z,33.23
2023-01-26T15:00:35.795Z,28.00
2023-01-26T15:02:43.833Z,24.70
2023-01-26T15:04:55.335Z,26.03
2023-01-26T15:06:57.326Z,25.77
2023-01-26T15:09:20.055Z,25.77
2023-01-26T15:12:13.656Z,22.33
2023-01-26T15:14:32.596Z,26.63
2023-01-26T15:16:52.740Z,31.30
2023-01-26T15:18:58.818Z,26.03
2023-01-26T15:21:21.076Z,29.20
2023-01-26T15:23:32.485Z,26.67
2023-01-26T15:25:34.752Z,35.80
2023-01-26T15:27:37.166Z,80.83
2023-01-26T15:29:39.376Z,95.00
2023-01-26T15:31:43.044Z,91.30
2023-01-26T15:33:55.250Z,105.90
2023-01-26T15:35:58.598Z,108.63
2023-01-26T15:38:06.404Z,129.37
2023-01-26T15:40:09.661Z,138.67
2023-01-26T15:42:12.443Z,98.10
2023-01-26T15:44:21.670Z,48.00
2023-01-26T15:46:24.382Z,42.17
2023-01-26T15:48:27.017Z,32.33
2023-01-26T15:50:29.219Z,42.77
2023-01-26T15:52:33.240Z,41.93
2023-01-26T15:54:37.835Z,40.70
2023-01-26T15:56:40.167Z,41.07
2023-01-26T15:58:42.768Z,34.70
2023-01-26T16:00:45.172Z,27.93
2023-01-26T16:02:47.372Z,33.67
2023-01-26T16:04:49.651Z,39.20
2023-01-26T16:06:51.540Z,38.57
2023-01-26T16:08:55.319Z,36.90
2023-01-26T16:10:58.200Z,40.33
2023-01-26T16:13:00.273Z,35.50
2023-01-26T16:15:02.796Z,28.20
2023-01-26T16:17:14.572Z,25.87
2023-01-26T16:19:33.748Z,26.03
2023-01-26T16:21:41.045Z,22.13
2023-01-26T16:23:43.803Z,22.93
2023-01-26T16:25:46.739Z,25.57
2023-01-26T16:28:14.333Z,20.80
2023-01-26T16:30:17.215Z,23.93
2023-01-26T16:32:29.235Z,97.60
2023-01-26T16:38:32.547Z,49.07
2023-01-26T16:40:34.634Z,32.80
2023-01-26T16:42:40.514Z,33.40
2023-01-26T16:44:42.682Z,26.10
2023-01-26T16:46:48.040Z,27.30
2023-01-26T16:48:51.192Z,31.63
2023-01-26T16:50:54.262Z,57.43
2023-01-26T16:52:56.276Z,44.03
2023-01-26T16:54:59.335Z,48.40
2023-01-26T16:57:01.441Z,36.27
2023-01-26T16:59:05.896Z,38.10
2023-01-26T17:01:17.040Z,44.83
2023-01-26T17:03:19.183Z,45.03
2023-01-26T17:05:22.388Z,64.70
2023-01-26T17:07:24.590Z,65.33
2023-01-26T17:09:26.845Z,64.63
2023-01-26T17:11:29.564Z,47.93
2023-01-26T17:13:31.670Z,37.67
2023-01-26T17:15:34.272Z,36.33
2023-01-26T17:17:36.353Z,40.97
2023-01-26T17:19:38.389Z,40.60
2023-01-26T17:21:40.794Z,41.13
2023-01-26T17:23:44.782Z,39.67
2023-01-26T17:25:46.687Z,37.00
2023-01-26T17:27:50.046Z,37.07
2023-01-26T17:29:52.236Z,32.50
2023-01-26T17:31:54.532Z,26.70
2023-01-26T17:33:56.690Z,31.40
2023-01-26T17:36:02.852Z,30.03
2023-01-26T17:38:05.327Z,27.43
2023-01-26T17:40:11.340Z,33.30
2023-01-26T17:42:14.542Z,32.93
2023-01-26T17:44:16.756Z,86.60
2023-01-26T17:46:20.925Z,129.73
2023-01-26T17:48:22.778Z,206.23
2023-01-26T17:50:25.139Z,184.80
2023-01-26T17:52:27.769Z,130.07
2023-01-26T17:54:29.703Z,111.03
2023-01-26T17:56:31.661Z,117.03
2023-01-26T17:58:34.067Z,144.13
2023-01-26T18:00:36.115Z,119.53
2023-01-26T18:02:38.361Z,139.23
2023-01-26T18:04:40.423Z,143.43
2023-01-26T18:06:42.519Z,137.23
2023-01-26T18:08:44.824Z,113.00
2023-01-26T18:10:50.843Z,123.40
2023-01-26T18:12:52.807Z,103.80
2023-01-26T18:14:55.296Z,83.60
2023-01-26T18:16:57.383Z,78.87
2023-01-26T18:19:04.784Z,121.17
2023-01-26T18:21:17.077Z,115.40
2023-01-26T18:23:20.200Z,126.00
2023-01-26T18:25:22.738Z,79.63
2023-01-26T18:27:25.421Z,57.97
2023-01-26T18:29:27.342Z,41.27
2023-01-26T18:31:36.779Z,27.83
2023-01-26T18:33:39.097Z,24.23
2023-01-26T18:35:41.282Z,22.93
2023-01-26T18:37:43.325Z,22.17
2023-01-26T18:39:45.591Z,19.90
2023-01-26T18:41:47.769Z,18.47
2023-01-26T18:43:51.554Z,27.40
2023-01-26T18:45:53.692Z,21.73
2023-01-26T18:47:56.000Z,28.57
2023-01-26T18:49:58.007Z,26.47
2023-01-26T18:52:00.180Z,25.63
2023-01-26T18:54:04.485Z,24.13
2023-01-26T18:56:09.798Z,22.97
2023-01-26T18:58:12.339Z,22.10
2023-01-26T19:00:15.022Z,21.60
2023-01-26T19:02:17.257Z,27.73
2023-01-26T19:04:19.585Z,29.57
2023-01-26T19:06:23.594Z,26.10
2023-01-26T19:08:25.731Z,30.57
2023-01-26T19:10:27.758Z,28.30
2023-01-26T19:12:29.796Z,26.43
2023-01-26T19:14:35.626Z,25.20
2023-01-26T19:16:38.180Z,21.67
2023-01-26T19:18:40.301Z,24.93
2023-01-26T19:20:42.648Z,25.23
2023-01-26T19:22:46.319Z,26.27
2023-01-26T19:24:48.322Z,31.23
2023-01-26T19:26:50.560Z,50.67
2023-01-26T19:28:54.872Z,75.63
2023-01-26T19:31:03.907Z,62.33
2023-01-26T19:33:24.256Z,73.50
2023-01-26T19:35:26.433Z,44.63
2023-01-26T19:37:28.394Z,49.37
2023-01-26T19:39:31.324Z,32.20
2023-01-26T19:41:33.912Z,38.27
2023-01-26T19:43:36.069Z,43.93
2023-01-26T19:45:38.850Z,45.77
2023-01-26T19:47:41.878Z,49.27
2023-01-26T19:49:43.968Z,48.67
2023-01-26T19:51:46.167Z,52.17
2023-01-26T19:53:50.440Z,53.17
2023-01-26T19:55:55.575Z,38.27
2023-01-26T19:58:00.608Z,29.97
2023-01-26T20:00:07.293Z,24.43
2023-01-26T20:02:14.315Z,19.53
2023-01-26T20:04:16.572Z,18.60
2023-01-26T20:06:21.457Z,20.17
2023-01-26T20:08:24.415Z,21.70
2023-01-26T20:10:26.604Z,24.93
2023-01-26T20:12:28.995Z,20.27
2023-01-26T20:14:31.180Z,20.53
2023-01-26T20:16:34.565Z,17.90
2023-01-26T20:18:37.320Z,24.13
2023-01-26T20:20:39.635Z,24.93
2023-01-26T20:22:41.803Z,22.23
2023-01-26T20:24:44.279Z,19.67
2023-01-26T20:26:46.625Z,20.00
2023-01-26T20:28:49.177Z,20.60
2023-01-26T20:30:51.366Z,25.20
2023-01-26T20:32:54.803Z,22.93
2023-01-26T20:34:58.100Z,24.33
2023-01-26T20:37:00.502Z,25.00
2023-01-26T20:39:04.333Z,25.97
2023-01-26T20:41:12.185Z,59.93
2023-01-26T20:43:16.200Z,46.00
2023-01-26T20:45:18.836Z,36.33
2023-01-26T20:47:22.820Z,30.13
2023-01-26T20:49:25.323Z,35.07
2023-01-26T20:51:33.674Z,41.47
2023-01-26T20:53:36.121Z,40.03
2023-01-26T20:55:38.255Z,40.83
2023-01-26T20:57:40.542Z,35.57
2023-01-26T20:59:46.307Z,33.80
2023-01-26T21:01:48.525Z,35.27
2023-01-26T21:03:51.767Z,42.33
2023-01-26T21:05:56.825Z,40.20
2023-01-26T21:07:59.085Z,50.80
2023-01-26T21:10:01.691Z,66.87
2023-01-26T21:12:04.004Z,58.10
2023-01-26T21:14:06.638Z,46.60
2023-01-26T21:16:16.860Z,42.37
2023-01-26T21:18:19.184Z,43.60
2023-01-26T21:20:21.426Z,49.10
2023-01-26T21:22:23.749Z,90.57
2023-01-26T21:24:26.279Z,145.43
2023-01-26T21:26:28.852Z,119.67
2023-01-26T21:28:31.910Z,85.83
2023-01-26T21:30:34.182Z,74.97
2023-01-26T21:32:36.453Z,84.50
2023-01-26T21:34:38.544Z,102.70
2023-01-26T21:36:40.697Z,86.40
2023-01-26T21:38:45.437Z,76.10
2023-01-26T21:40:47.602Z,68.07
2023-01-26T21:42:49.773Z,71.83
2023-01-26T21:45:14.777Z,73.77
2023-01-26T21:47:19.789Z,80.03
2023-01-26T21:49:22.839Z,75.87
2023-01-26T21:51:44.854Z,71.17
2023-01-26T21:53:47.970Z,75.77
2023-01-26T21:55:50.272Z,55.07
2023-01-26T21:58:10.841Z,54.93
2023-01-26T22:00:13.693Z,40.53
2023-01-26T22:02:15.896Z,60.23
2023-01-26T22:04:24.387Z,86.30
2023-01-26T22:06:26.812Z,88.03
2023-01-26T22:08:30.611Z,88.33
2023-01-26T22:10:32.647Z,71.53
2023-01-26T22:12:34.920Z,44.70
2023-01-26T22:14:40.175Z,40.10
2023-01-26T22:16:42.900Z,43.40
2023-01-26T22:18:46.148Z,39.37
2023-01-26T22:20:48.333Z,35.00
2023-01-26T22:22:50.567Z,33.03
2023-01-26T22:24:54.019Z,32.73
2023-01-26T22:26:56.067Z,30.27
2023-01-26T22:28:59.033Z,30.30
2023-01-26T22:31:03.644Z,25.43
2023-01-26T22:33:06.124Z,25.97
2023-01-26T22:35:08.564Z,19.53
2023-01-26T22:37:10.735Z,24.20
2023-01-26T22:39:12.982Z,25.77
2023-01-26T22:41:19.808Z,22.40
2023-01-26T22:43:22.650Z,26.13
2023-01-26T22:45:25.124Z,28.50
2023-01-26T22:47:27.479Z,24.20
2023-01-26T22:49:30.104Z,21.47
2023-01-26T22:51:37.085Z,20.17
2023-01-26T22:53:40.165Z,21.33
2023-01-26T22:55:43.268Z,20.40
2023-01-26T22:57:48.348Z,20.20
2023-01-26T22:59:50.754Z,23.33
2023-01-26T23:01:53.079Z,21.97
2023-01-26T23:03:56.336Z,19.27
2023-01-26T23:06:03.164Z,19.87
2023-01-26T23:08:05.616Z,18.07
2023-01-26T23:10:08.073Z,21.23
2023-01-26T23:12:10.243Z,19.77
2023-01-26T23:14:12.291Z,16.63
2023-01-26T23:16:14.811Z,20.30
2023-01-26T23:18:17.521Z,20.30
2023-01-26T23:20:21.018Z,20.80
2023-01-26T23:22:23.675Z,22.50
2023-01-26T23:24:25.808Z,28.10
2023-01-26T23:26:28.091Z,22.80
2023-01-26T23:28:32.997Z,37.67
2023-01-26T23:30:35.300Z,31.70
2023-01-26T23:32:37.728Z,25.57
2023-01-26T23:34:39.992Z,23.03
2023-01-26T23:36:42.040Z,21.73
2023-01-26T23:38:45.898Z,19.43
2023-01-26T23:40:49.823Z,18.93
2023-01-26T23:43:03.672Z,20.90
2023-01-26T23:45:12.841Z,22.80
2023-01-26T23:47:15.262Z,22.40
2023-01-26T23:49:19.318Z,25.47
2023-01-26T23:51:21.564Z,27.63
2023-01-26T23:53:24.303Z,22.93
2023-01-26T23:55:26.705Z,26.50
2023-01-26T23:57:28.877Z,26.10
2023-01-26T23:59:31.538Z,22.87
